createdAt,value
2017-10-09T00:00:33.926Z,84.45
2017-10-09T00:03:03.494Z,84.03
2017-10-09T00:05:29.255Z,84.29
2017-10-09T00:07:54.987Z,84.24
2017-10-09T00:10:20.776Z,84.17
2017-10-09T00:12:46.551Z,84.38
2017-10-09T00:15:12.294Z,84.42
2017-10-09T00:17:38.076Z,84.46
2017-10-09T00:20:03.855Z,84.44
2017-10-09T00:22:29.587Z,84.17
2017-10-09T00:24:55.386Z,84.18
2017-10-09T00:27:21.174Z,83.94
2017-10-09T00:29:46.939Z,83.78
2017-10-09T00:32:12.725Z,84.09
2017-10-09T00:34:38.491Z,84.48
2017-10-09T00:37:04.254Z,85.00
2017-10-09T00:39:29.995Z,84.98
2017-10-09T00:41:55.782Z,84.68
2017-10-09T00:44:21.531Z,84.80
2017-10-09T00:46:47.284Z,85.44
2017-10-09T00:49:13.066Z,85.65
2017-10-09T00:51:38.816Z,85.47
2017-10-09T00:54:04.603Z,85.10
2017-10-09T00:56:30.407Z,85.08
2017-10-09T00:58:56.958Z,85.39
2017-10-09T01:01:22.756Z,85.73
2017-10-09T01:03:48.498Z,85.78
2017-10-09T01:06:14.279Z,85.77
2017-10-09T01:08:40.035Z,85.66
2017-10-09T01:11:05.843Z,85.93
2017-10-09T01:13:31.639Z,86.23
2017-10-09T01:15:57.389Z,86.46
2017-10-09T01:18:23.143Z,86.48
2017-10-09T01:20:48.938Z,86.52
2017-10-09T01:23:14.687Z,86.92
2017-10-09T01:25:40.431Z,87.05
2017-10-09T01:28:06.236Z,86.97
2017-10-09T01:30:31.966Z,86.76
2017-10-09T01:32:57.706Z,87.19
2017-10-09T01:35:23.503Z,87.04
2017-10-09T01:37:50.025Z,87.28
2017-10-09T01:40:15.775Z,87.42
2017-10-09T01:42:41.545Z,87.77
2017-10-09T01:45:07.283Z,87.69
2017-10-09T01:47:33.036Z,87.54
2017-10-09T01:49:58.795Z,87.48
2017-10-09T01:52:24.534Z,87.22
2017-10-09T01:54:50.304Z,86.86
2017-10-09T01:57:16.066Z,86.59
2017-10-09T01:59:41.806Z,86.68
2017-10-09T02:02:07.580Z,86.75
2017-10-09T02:04:33.310Z,86.80
2017-10-09T02:06:59.054Z,86.50
2017-10-09T02:09:24.838Z,87.04
2017-10-09T02:11:50.572Z,86.92
2017-10-09T02:14:16.310Z,87.03
2017-10-09T02:16:42.108Z,87.14
2017-10-09T02:19:07.883Z,87.24
2017-10-09T02:21:33.676Z,86.87
2017-10-09T02:23:59.426Z,87.27
2017-10-09T02:26:25.204Z,87.44
2017-10-09T02:28:50.963Z,87.94
2017-10-09T02:31:16.754Z,87.75
2017-10-09T02:33:42.501Z,87.36
2017-10-09T02:36:08.255Z,87.84
2017-10-09T02:38:34.019Z,88.07
2017-10-09T02:40:59.757Z,87.85
2017-10-09T02:43:25.543Z,87.80
2017-10-09T02:45:51.303Z,87.91
2017-10-09T02:48:17.041Z,88.03
2017-10-09T02:50:42.814Z,88.00
2017-10-09T02:53:08.577Z,88.28
2017-10-09T02:55:34.339Z,88.05
2017-10-09T02:58:00.075Z,87.87
2017-10-09T03:00:25.871Z,87.49
2017-10-09T03:02:51.598Z,87.24
2017-10-09T03:05:17.330Z,87.19
2017-10-09T03:07:43.115Z,86.58
2017-10-09T03:10:08.861Z,86.74
2017-10-09T03:12:34.645Z,86.92
2017-10-09T03:15:00.411Z,86.89
2017-10-09T03:17:26.212Z,86.92
2017-10-09T03:19:51.990Z,86.51
2017-10-09T03:22:18.617Z,86.67
2017-10-09T03:24:45.456Z,86.34
2017-10-09T03:27:19.123Z,86.06
2017-10-09T03:29:45.702Z,85.74
2017-10-09T03:32:11.514Z,85.11
2017-10-09T03:34:37.296Z,85.64
2017-10-09T03:37:03.103Z,85.72
2017-10-09T03:39:28.883Z,85.97
2017-10-09T03:41:54.626Z,85.17
2017-10-09T03:44:20.378Z,85.23
2017-10-09T03:46:46.159Z,85.74
2017-10-09T03:49:11.946Z,86.19
2017-10-09T03:51:37.687Z,85.43
2017-10-09T03:54:03.432Z,85.34
2017-10-09T03:56:29.235Z,85.86
2017-10-09T03:58:54.973Z,86.63
2017-10-09T04:01:20.747Z,86.14
2017-10-09T04:03:46.491Z,86.52
2017-10-09T04:06:12.252Z,86.66
2017-10-09T04:08:37.987Z,86.70
2017-10-09T04:11:03.855Z,86.65
2017-10-09T04:13:29.625Z,86.32
2017-10-09T04:15:55.354Z,86.04
2017-10-09T04:18:21.096Z,86.42
2017-10-09T04:20:46.893Z,86.73
2017-10-09T04:23:12.649Z,86.47
2017-10-09T04:25:38.391Z,86.81
2017-10-09T04:28:04.246Z,87.21
2017-10-09T04:30:29.994Z,87.18
2017-10-09T04:32:55.778Z,87.00
2017-10-09T04:35:21.619Z,87.14
2017-10-09T04:37:47.364Z,86.59
2017-10-09T04:40:13.131Z,86.90
2017-10-09T04:42:38.898Z,87.03
2017-10-09T04:45:04.658Z,86.85
2017-10-09T04:47:30.403Z,86.75
2017-10-09T04:49:56.262Z,86.42
2017-10-09T04:52:22.008Z,86.67
2017-10-09T04:54:47.787Z,86.86
2017-10-09T04:57:13.535Z,86.78
2017-10-09T04:59:39.271Z,86.82
2017-10-09T05:02:05.055Z,85.98
2017-10-09T05:04:30.819Z,86.51
2017-10-09T05:06:56.563Z,87.59
2017-10-09T05:09:22.330Z,87.37
2017-10-09T05:11:48.083Z,87.04
2017-10-09T05:14:13.874Z,86.70
2017-10-09T05:16:39.643Z,86.63
2017-10-09T05:19:05.420Z,86.54
2017-10-09T05:21:31.205Z,86.28
2017-10-09T05:23:57.809Z,85.69
2017-10-09T05:26:23.582Z,86.62
2017-10-09T05:28:49.361Z,87.06
2017-10-09T05:31:15.112Z,86.76
2017-10-09T05:33:40.851Z,86.70
2017-10-09T05:36:06.630Z,87.05
2017-10-09T05:38:32.371Z,86.62
2017-10-09T05:40:58.115Z,86.77
2017-10-09T05:43:23.874Z,86.79
2017-10-09T05:45:49.646Z,86.44
2017-10-09T05:48:15.395Z,86.13
2017-10-09T05:50:41.142Z,85.87
2017-10-09T05:53:06.923Z,86.16
2017-10-09T05:55:32.669Z,85.56
2017-10-09T05:57:58.439Z,85.79
2017-10-09T06:00:24.189Z,85.76
2017-10-09T06:02:49.939Z,86.27
2017-10-09T06:05:15.704Z,86.75
2017-10-09T06:07:41.471Z,86.88
2017-10-09T06:10:07.264Z,86.39
2017-10-09T06:12:32.997Z,85.79
2017-10-09T06:14:58.749Z,85.39
2017-10-09T06:17:24.519Z,85.42
2017-10-09T06:19:50.292Z,85.95
2017-10-09T06:22:16.059Z,85.53
2017-10-09T06:24:41.810Z,84.92
2017-10-09T06:27:07.594Z,85.29
2017-10-09T06:29:33.342Z,85.81
2017-10-09T06:31:59.110Z,86.01
2017-10-09T06:34:24.878Z,85.90
2017-10-09T06:36:50.635Z,85.80
2017-10-09T06:39:16.420Z,85.38
2017-10-09T06:41:42.167Z,85.15
2017-10-09T06:44:07.920Z,84.84
2017-10-09T06:46:33.706Z,84.74
2017-10-09T06:48:59.482Z,85.23
2017-10-09T06:51:25.274Z,85.45
2017-10-09T06:53:51.030Z,85.10
2017-10-09T06:56:16.795Z,85.36
2017-10-09T06:58:42.605Z,85.12
2017-10-09T07:01:08.355Z,85.32
2017-10-09T07:03:34.114Z,85.24
2017-10-09T07:05:59.915Z,85.29
2017-10-09T07:08:25.670Z,84.97
2017-10-09T07:10:51.439Z,84.31
2017-10-09T07:13:17.226Z,83.53
2017-10-09T07:15:42.972Z,83.45
2017-10-09T07:18:08.760Z,83.04
2017-10-09T07:20:34.543Z,82.71
2017-10-09T07:23:00.312Z,83.29
2017-10-09T07:25:26.091Z,83.64
2017-10-09T07:27:51.862Z,82.56
2017-10-09T07:30:17.607Z,82.83
2017-10-09T07:32:43.378Z,84.77
2017-10-09T07:35:09.127Z,84.53
2017-10-09T07:37:34.899Z,84.23
2017-10-09T07:40:00.642Z,83.95
2017-10-09T07:42:26.387Z,84.27
2017-10-09T07:44:52.178Z,83.90
2017-10-09T07:47:17.975Z,83.66
2017-10-09T07:49:43.708Z,84.12
2017-10-09T07:52:09.459Z,84.30
2017-10-09T07:54:35.253Z,84.92
2017-10-09T07:57:01.075Z,85.26
2017-10-09T07:59:27.502Z,85.96
2017-10-09T08:01:53.239Z,86.63
2017-10-09T08:04:19.042Z,85.66
2017-10-09T08:06:44.919Z,86.48
2017-10-09T08:09:10.671Z,85.75
2017-10-09T08:11:36.423Z,85.43
2017-10-09T08:14:02.200Z,84.74
2017-10-09T08:16:27.977Z,84.54
2017-10-09T08:18:53.736Z,85.02
2017-10-09T08:21:19.486Z,84.16
2017-10-09T08:23:45.322Z,85.43
2017-10-09T08:26:11.103Z,86.05
2017-10-09T08:28:36.847Z,85.61
2017-10-09T08:31:02.586Z,84.15
2017-10-09T08:33:28.367Z,83.76
2017-10-09T08:35:54.103Z,83.76
2017-10-09T08:38:19.900Z,84.57
2017-10-09T08:40:45.640Z,83.63
2017-10-09T08:43:11.386Z,85.67
2017-10-09T08:45:37.154Z,85.47
2017-10-09T08:48:02.908Z,84.93
2017-10-09T08:50:32.206Z,82.84
2017-10-09T08:52:58.017Z,84.51
2017-10-09T08:55:23.823Z,82.86
2017-10-09T08:57:49.610Z,82.41
2017-10-09T09:00:15.382Z,81.64
2017-10-09T09:02:41.132Z,81.57
2017-10-09T09:05:06.952Z,80.86
2017-10-09T09:07:32.700Z,80.78
2017-10-09T09:09:58.443Z,78.49
2017-10-09T09:12:24.243Z,81.07
2017-10-09T09:14:49.970Z,80.88
2017-10-09T09:17:15.751Z,80.40
2017-10-09T09:19:41.495Z,81.24
2017-10-09T09:22:07.236Z,80.05
2017-10-09T09:24:33.011Z,79.84
2017-10-09T09:26:58.768Z,79.05
2017-10-09T09:29:24.538Z,80.66
2017-10-09T09:31:50.291Z,80.47
2017-10-09T09:34:16.045Z,78.21
2017-10-09T09:36:41.823Z,76.78
2017-10-09T09:39:07.583Z,75.56
2017-10-09T09:41:33.360Z,75.89
2017-10-09T09:43:59.102Z,74.71
2017-10-09T09:46:24.884Z,74.01
2017-10-09T09:48:50.662Z,73.13
2017-10-09T09:51:16.407Z,71.44
2017-10-09T09:53:42.153Z,70.82
2017-10-09T09:56:07.923Z,70.71
2017-10-09T09:58:33.698Z,71.46
2017-10-09T10:00:59.459Z,69.53
2017-10-09T10:03:25.194Z,64.11
2017-10-09T10:05:50.981Z,59.90
2017-10-09T10:08:16.726Z,60.05
2017-10-09T10:10:42.480Z,59.29
2017-10-09T10:13:08.277Z,58.74
2017-10-09T10:15:34.015Z,61.06
2017-10-09T10:18:00.020Z,65.11
2017-10-09T10:20:25.802Z,66.35
2017-10-09T10:22:51.567Z,67.43
2017-10-09T10:25:17.380Z,65.70
2017-10-09T10:27:43.112Z,67.17
2017-10-09T10:30:08.900Z,66.47
2017-10-09T10:32:34.663Z,66.24
2017-10-09T10:35:00.415Z,67.55
2017-10-09T10:37:26.183Z,66.56
2017-10-09T10:39:51.931Z,69.27
2017-10-09T10:42:17.726Z,65.08
2017-10-09T10:44:43.487Z,64.62
2017-10-09T10:47:09.294Z,63.10
2017-10-09T10:49:35.036Z,63.89
2017-10-09T10:52:00.819Z,61.12
2017-10-09T10:54:26.584Z,59.16
2017-10-09T10:56:52.355Z,55.98
2017-10-09T10:59:18.111Z,54.86
2017-10-09T11:01:43.903Z,50.34
2017-10-09T11:04:09.649Z,51.63
2017-10-09T11:06:35.410Z,52.81
2017-10-09T11:09:01.204Z,54.07
2017-10-09T11:11:26.942Z,56.00
2017-10-09T11:13:52.673Z,55.77
2017-10-09T11:16:18.449Z,55.71
2017-10-09T11:18:44.318Z,55.96
2017-10-09T11:21:10.054Z,56.57
2017-10-09T11:23:35.843Z,55.42
2017-10-09T11:26:01.574Z,57.77
2017-10-09T11:28:27.323Z,62.32
2017-10-09T11:30:53.095Z,58.75
2017-10-09T11:33:18.912Z,60.62
2017-10-09T11:35:44.647Z,57.53
2017-10-09T11:38:10.382Z,55.61
2017-10-09T11:40:36.162Z,54.95
2017-10-09T11:43:01.899Z,59.63
2017-10-09T11:45:27.640Z,59.52
2017-10-09T11:47:53.407Z,57.15
2017-10-09T11:50:19.202Z,60.45
2017-10-09T11:52:44.948Z,60.02
2017-10-09T11:55:10.762Z,58.51
2017-10-09T11:57:36.490Z,57.49
2017-10-09T12:00:02.255Z,57.84
2017-10-09T12:02:28.031Z,58.22
2017-10-09T12:04:53.822Z,59.48
2017-10-09T12:07:19.599Z,57.66
2017-10-09T12:09:45.343Z,57.26
2017-10-09T12:12:11.083Z,56.76
2017-10-09T12:14:36.846Z,55.88
2017-10-09T12:17:02.586Z,55.88
2017-10-09T12:19:28.384Z,54.52
2017-10-09T12:21:54.177Z,53.08
2017-10-09T12:24:20.018Z,54.81
2017-10-09T12:26:45.822Z,54.66
2017-10-09T12:29:11.584Z,52.76
2017-10-09T12:31:37.327Z,49.46
2017-10-09T12:34:03.119Z,49.79
2017-10-09T12:36:28.866Z,49.49
2017-10-09T12:38:54.602Z,51.01
2017-10-09T12:41:20.351Z,50.47
2017-10-09T12:43:46.117Z,49.64
2017-10-09T12:46:11.890Z,49.02
2017-10-09T12:48:37.642Z,49.76
2017-10-09T12:51:03.395Z,48.63
2017-10-09T12:53:29.179Z,49.00
2017-10-09T12:55:54.965Z,49.97
2017-10-09T12:58:20.706Z,52.06
2017-10-09T13:00:46.495Z,51.02
2017-10-09T13:03:12.251Z,50.21
2017-10-09T13:05:38.002Z,51.26
2017-10-09T13:08:03.840Z,50.02
2017-10-09T13:10:29.577Z,49.53
2017-10-09T13:12:55.317Z,48.83
2017-10-09T13:15:21.082Z,49.90
2017-10-09T13:17:46.839Z,51.29
2017-10-09T13:20:12.605Z,51.70
2017-10-09T13:22:38.355Z,49.10
2017-10-09T13:25:04.160Z,50.29
2017-10-09T13:27:30.473Z,50.72
2017-10-09T13:29:56.227Z,49.50
2017-10-09T13:32:21.998Z,52.36
2017-10-09T13:34:47.771Z,53.34
2017-10-09T13:37:13.539Z,52.51
2017-10-09T13:39:39.297Z,51.55
2017-10-09T13:42:05.094Z,51.23
2017-10-09T13:44:30.868Z,51.54
2017-10-09T13:46:56.619Z,50.05
2017-10-09T13:49:22.947Z,46.65
2017-10-09T13:51:49.590Z,46.94
2017-10-09T13:54:16.222Z,47.50
2017-10-09T13:56:42.403Z,46.17
2017-10-09T13:59:08.723Z,45.62
2017-10-09T14:01:34.889Z,44.50
2017-10-09T14:06:34.120Z,42.46
2017-10-09T14:09:00.210Z,42.92
2017-10-09T14:11:26.293Z,44.44
2017-10-09T14:13:52.879Z,41.06
2017-10-09T14:16:18.730Z,43.94
2017-10-09T14:18:44.555Z,46.38
2017-10-09T14:41:05.858Z,41.39
2017-10-09T14:43:54.535Z,42.52
2017-10-09T15:03:02.415Z,42.99
2017-10-09T15:22:34.740Z,43.84
2017-10-09T15:25:00.646Z,44.55
2017-10-09T15:44:31.744Z,45.12
2017-10-09T15:46:57.528Z,45.98
2017-10-09T16:06:28.315Z,48.47
2017-10-09T16:25:35.278Z,56.91
2017-10-09T16:44:42.453Z,67.82
2017-10-09T17:03:50.118Z,71.22
2017-10-09T17:16:17.736Z,72.71
2017-10-09T17:36:07.028Z,75.93
2017-10-09T17:38:32.803Z,76.00
2017-10-09T17:41:21.939Z,75.68
2017-10-09T18:00:29.983Z,77.90
2017-10-09T18:03:19.023Z,77.93
2017-10-09T18:06:15.802Z,77.78
2017-10-09T18:25:20.416Z,80.69
2017-10-09T18:44:28.331Z,82.24
2017-10-09T18:47:17.084Z,82.29
2017-10-09T18:50:13.784Z,82.34
2017-10-09T19:09:17.632Z,80.36
2017-10-09T19:28:25.152Z,78.78
2017-10-09T19:31:13.890Z,78.62
2017-10-09T19:50:22.228Z,80.01
2017-10-09T19:53:10.859Z,79.71
2017-10-09T20:12:18.708Z,78.50
2017-10-09T20:15:07.330Z,78.42
2017-10-09T20:18:04.221Z,78.51
2017-10-09T20:21:01.109Z,78.72
2017-10-09T20:23:57.687Z,78.99
2017-10-09T20:26:55.186Z,79.05
2017-10-09T20:29:52.325Z,79.13
2017-10-09T20:32:49.823Z,79.17
2017-10-09T20:51:56.924Z,79.36
2017-10-09T20:57:43.663Z,79.93
2017-10-09T21:00:33.099Z,79.97
2017-10-09T21:39:37.310Z,79.59
2017-10-09T21:42:03.137Z,79.50
2017-10-09T21:44:52.298Z,79.49
2017-10-09T21:47:49.022Z,79.63
2017-10-09T21:50:45.529Z,79.98
2017-10-09T21:53:42.027Z,79.79
2017-10-09T21:56:38.834Z,80.09
2017-10-09T21:59:36.212Z,80.32
2017-10-09T22:02:33.765Z,80.29
2017-10-09T22:04:59.564Z,80.21
2017-10-09T22:24:31.110Z,80.16
2017-10-09T22:26:56.927Z,80.68
2017-10-09T22:29:46.333Z,80.68
2017-10-09T22:48:54.351Z,79.98
2017-10-09T22:51:43.099Z,79.83
2017-10-09T22:54:45.937Z,80.05
2017-10-09T22:57:43.276Z,79.86
2017-10-09T23:00:40.782Z,79.77
2017-10-09T23:03:37.936Z,80.19
2017-10-09T23:26:05.141Z,80.64
2017-10-09T23:29:02.537Z,80.21
2017-10-09T23:34:48.594Z,80.19
2017-10-09T23:37:37.253Z,80.44
2017-10-09T23:59:59.094Z,81.22
